createdAt,value
2022-08-26T00:01:54.588Z,4.00
2022-08-26T00:04:25.355Z,4.25
2022-08-26T00:06:54.142Z,4.10
2022-08-26T00:09:22.194Z,4.03
2022-08-26T00:11:49.549Z,3.80
2022-08-26T00:14:18.235Z,4.15
2022-08-26T00:16:48.134Z,4.30
2022-08-26T00:19:18.322Z,3.80
2022-08-26T00:21:48.861Z,4.40
2022-08-26T00:24:20.403Z,4.28
2022-08-26T00:26:48.943Z,4.57
2022-08-26T00:29:16.960Z,4.03
2022-08-26T00:31:45.513Z,4.28
2022-08-26T00:34:13.920Z,3.88
2022-08-26T00:36:43.646Z,4.40
2022-08-26T00:39:11.239Z,4.13
2022-08-26T00:41:40.411Z,3.95
2022-08-26T00:44:08.679Z,4.50
2022-08-26T00:46:46.680Z,4.25
2022-08-26T00:49:29.551Z,4.28
2022-08-26T00:51:58.956Z,4.57
2022-08-26T00:54:32.835Z,4.00
2022-08-26T00:57:05.084Z,3.80
2022-08-26T00:59:45.520Z,4.40
2022-08-26T01:02:20.842Z,4.30
2022-08-26T01:04:56.012Z,4.13
2022-08-26T01:07:26.340Z,4.05
2022-08-26T01:09:55.722Z,4.10
2022-08-26T01:12:25.174Z,4.38
2022-08-26T01:14:53.064Z,4.43
2022-08-26T01:17:20.292Z,4.13
2022-08-26T01:19:54.835Z,4.43
2022-08-26T01:22:33.235Z,4.30
2022-08-26T01:25:03.673Z,4.15
2022-08-26T01:27:33.549Z,4.22
2022-08-26T01:30:02.546Z,4.40
2022-08-26T01:32:32.096Z,4.10
2022-08-26T01:34:59.879Z,4.65
2022-08-26T01:37:33.064Z,4.70
2022-08-26T01:40:00.617Z,4.38
2022-08-26T01:42:29.375Z,4.40
2022-08-26T01:45:11.578Z,4.60
2022-08-26T01:47:39.585Z,4.60
2022-08-26T01:50:15.804Z,4.53
2022-08-26T01:52:56.315Z,4.80
2022-08-26T01:55:32.410Z,4.45
2022-08-26T01:58:06.546Z,4.65
2022-08-26T02:00:35.155Z,4.45
2022-08-26T02:03:17.084Z,4.60
2022-08-26T02:05:53.463Z,4.53
2022-08-26T02:08:25.650Z,4.70
2022-08-26T02:10:54.909Z,4.88
2022-08-26T02:13:25.632Z,4.90
2022-08-26T02:15:54.270Z,4.20
2022-08-26T02:18:22.864Z,4.35
2022-08-26T02:20:52.861Z,4.90
2022-08-26T02:23:20.392Z,4.40
2022-08-26T02:25:55.994Z,4.68
2022-08-26T02:28:23.210Z,4.72
2022-08-26T02:30:55.531Z,4.25
2022-08-26T02:33:22.940Z,4.75
2022-08-26T02:35:50.087Z,4.63
2022-08-26T02:38:17.875Z,5.00
2022-08-26T02:40:45.094Z,4.53
2022-08-26T02:43:12.794Z,4.55
2022-08-26T02:45:41.374Z,4.78
2022-08-26T02:48:16.614Z,5.00
2022-08-26T02:50:46.254Z,4.60
2022-08-26T02:53:14.796Z,4.80
2022-08-26T02:55:42.504Z,4.43
2022-08-26T02:58:17.303Z,4.57
2022-08-26T03:00:52.990Z,4.45
2022-08-26T03:03:23.589Z,4.88
2022-08-26T03:05:51.750Z,4.95
2022-08-26T03:08:19.249Z,4.85
2022-08-26T03:10:48.072Z,4.95
2022-08-26T03:13:16.960Z,4.93
2022-08-26T03:15:44.453Z,4.88
2022-08-26T03:18:15.175Z,4.53
2022-08-26T03:20:42.324Z,4.78
2022-08-26T03:23:12.244Z,4.80
2022-08-26T03:25:40.078Z,5.13
2022-08-26T03:28:10.124Z,4.82
2022-08-26T03:30:44.841Z,4.68
2022-08-26T03:33:14.166Z,4.82
2022-08-26T03:35:43.626Z,4.70
2022-08-26T03:38:14.129Z,4.72
2022-08-26T03:40:42.918Z,4.90
2022-08-26T03:43:11.984Z,4.70
2022-08-26T03:45:39.203Z,4.90
2022-08-26T03:48:07.184Z,4.82
2022-08-26T03:50:36.047Z,4.60
2022-08-26T03:53:04.297Z,5.10
2022-08-26T03:55:34.486Z,5.57
2022-08-26T03:58:02.320Z,5.13
2022-08-26T04:00:30.038Z,5.00
2022-08-26T04:02:57.653Z,5.18
2022-08-26T04:05:25.435Z,5.10
2022-08-26T04:07:52.734Z,5.00
2022-08-26T04:10:29.325Z,5.10
2022-08-26T04:12:58.840Z,5.20
2022-08-26T04:15:27.193Z,5.22
2022-08-26T04:17:55.791Z,5.47
2022-08-26T04:20:23.494Z,5.63
2022-08-26T04:22:51.036Z,6.07
2022-08-26T04:25:18.858Z,6.00
2022-08-26T04:27:48.307Z,5.45
2022-08-26T04:30:16.710Z,6.10
2022-08-26T04:32:44.218Z,5.80
2022-08-26T04:35:11.599Z,5.97
2022-08-26T04:37:39.305Z,5.93
2022-08-26T04:40:14.037Z,5.93
2022-08-26T04:42:41.179Z,6.10
2022-08-26T04:45:09.970Z,5.85
2022-08-26T04:47:37.800Z,5.63
2022-08-26T04:50:07.512Z,6.22
2022-08-26T04:52:36.363Z,6.25
2022-08-26T04:55:06.631Z,5.95
2022-08-26T04:57:35.714Z,5.85
2022-08-26T05:00:05.864Z,6.50
2022-08-26T05:02:33.014Z,6.43
2022-08-26T05:05:00.215Z,6.15
2022-08-26T05:07:28.635Z,6.97
2022-08-26T05:09:55.875Z,7.13
2022-08-26T05:12:23.508Z,6.75
2022-08-26T05:14:50.935Z,7.00
2022-08-26T05:17:18.944Z,6.78
2022-08-26T05:19:46.335Z,6.90
2022-08-26T05:22:13.916Z,7.47
2022-08-26T05:24:43.338Z,7.10
2022-08-26T05:27:11.734Z,6.95
2022-08-26T05:29:40.007Z,7.03
2022-08-26T05:32:07.377Z,7.15
2022-08-26T05:34:34.695Z,7.43
2022-08-26T05:37:02.193Z,8.48
2022-08-26T05:39:29.528Z,7.85
2022-08-26T05:41:56.659Z,7.18
2022-08-26T05:44:24.585Z,7.18
2022-08-26T05:46:52.040Z,7.07
2022-08-26T05:49:20.392Z,6.85
2022-08-26T05:51:53.574Z,7.30
2022-08-26T05:54:22.293Z,7.53
2022-08-26T05:56:52.784Z,7.60
2022-08-26T05:59:24.883Z,7.20
2022-08-26T06:01:53.763Z,7.25
2022-08-26T06:04:22.409Z,7.40
2022-08-26T06:06:52.266Z,7.68
2022-08-26T06:09:20.735Z,7.28
2022-08-26T06:11:48.796Z,7.70
2022-08-26T06:14:17.644Z,6.57
2022-08-26T06:16:45.819Z,7.05
2022-08-26T06:19:15.604Z,7.30
2022-08-26T06:21:47.115Z,7.32
2022-08-26T06:24:36.894Z,7.15
2022-08-26T06:27:12.645Z,6.82
2022-08-26T06:29:40.096Z,6.70
2022-08-26T06:32:08.765Z,6.85
2022-08-26T06:34:41.279Z,6.43
2022-08-26T06:37:09.117Z,6.82
2022-08-26T06:39:36.200Z,6.68
2022-08-26T06:42:11.994Z,6.60
2022-08-26T06:44:54.110Z,5.80
2022-08-26T06:47:28.192Z,6.35
2022-08-26T06:50:01.188Z,6.65
2022-08-26T06:52:31.879Z,6.80
2022-08-26T06:55:10.992Z,6.53
2022-08-26T06:58:10.829Z,7.00
2022-08-26T07:04:27.840Z,7.18
2022-08-26T07:07:02.249Z,7.15
2022-08-26T07:17:12.181Z,6.32
2022-08-26T07:20:01.522Z,6.95
2022-08-26T07:24:33.239Z,6.57
2022-08-26T07:26:09.500Z,7.43
2022-08-26T07:31:42.712Z,6.72
2022-08-26T07:41:07.049Z,6.72
2022-08-26T07:44:21.326Z,7.28
2022-08-26T07:46:52.468Z,6.63
2022-08-26T07:49:27.084Z,6.38
2022-08-26T07:52:06.350Z,7.10
2022-08-26T07:54:33.532Z,7.00
2022-08-26T07:57:01.714Z,7.00
2022-08-26T07:59:38.450Z,6.97
2022-08-26T08:02:07.680Z,7.13
2022-08-26T08:04:38.447Z,6.75
2022-08-26T08:07:11.548Z,7.30
2022-08-26T08:09:40.778Z,6.72
2022-08-26T08:12:14.121Z,7.13
2022-08-26T08:14:48.655Z,7.50
2022-08-26T08:17:23.604Z,7.07
2022-08-26T08:19:58.740Z,7.28
2022-08-26T08:22:27.474Z,6.65
2022-08-26T08:24:57.798Z,7.07
2022-08-26T08:27:48.285Z,7.25
2022-08-26T08:30:23.043Z,7.22
2022-08-26T08:32:53.726Z,7.32
2022-08-26T08:35:27.866Z,6.38
2022-08-26T08:37:57.271Z,6.32
2022-08-26T08:40:26.604Z,6.93
2022-08-26T08:43:06.410Z,6.80
2022-08-26T08:45:42.772Z,7.07
2022-08-26T08:48:27.747Z,6.85
2022-08-26T08:51:19.165Z,6.40
2022-08-26T08:53:54.806Z,6.85
2022-08-26T08:56:39.127Z,7.15
2022-08-26T08:59:18.820Z,6.85
2022-08-26T09:02:03.280Z,6.68
2022-08-26T09:05:08.221Z,7.10
2022-08-26T09:07:47.017Z,6.35
2022-08-26T09:10:14.204Z,6.50
2022-08-26T09:12:43.310Z,7.15
2022-08-26T09:15:30.150Z,7.45
2022-08-26T09:18:16.825Z,6.55
2022-08-26T09:20:59.012Z,7.20
2022-08-26T09:23:26.959Z,7.30
2022-08-26T09:26:02.326Z,6.70
2022-08-26T09:28:31.809Z,6.63
2022-08-26T09:31:30.642Z,6.57
2022-08-26T09:34:23.255Z,6.50
2022-08-26T09:36:54.121Z,6.47
2022-08-26T09:39:24.304Z,6.88
2022-08-26T09:42:23.608Z,7.10
2022-08-26T09:44:59.598Z,7.50
2022-08-26T09:47:32.675Z,7.05
2022-08-26T09:50:20.391Z,7.22
2022-08-26T09:52:48.680Z,7.47
2022-08-26T09:55:23.858Z,7.20
2022-08-26T09:57:54.416Z,7.72
2022-08-26T10:00:28.014Z,6.88
2022-08-26T10:02:57.974Z,7.32
2022-08-26T10:05:44.655Z,7.70
2022-08-26T10:08:40.320Z,6.60
2022-08-26T10:11:18.154Z,7.43
2022-08-26T10:13:58.333Z,7.13
2022-08-26T10:16:44.154Z,6.78
2022-08-26T10:19:19.304Z,7.53
2022-08-26T10:22:15.604Z,7.72
2022-08-26T10:24:51.932Z,8.38
2022-08-26T10:27:50.981Z,7.50
2022-08-26T10:30:23.385Z,8.00
2022-08-26T10:33:02.381Z,7.75
2022-08-26T10:35:31.035Z,7.63
2022-08-26T10:38:07.900Z,7.35
2022-08-26T10:41:11.644Z,7.07
2022-08-26T10:43:51.821Z,7.72
2022-08-26T10:46:27.217Z,7.93
2022-08-26T10:51:42.208Z,6.97
2022-08-26T10:54:21.744Z,7.95
2022-08-26T10:57:15.644Z,7.55
2022-08-26T11:00:29.816Z,7.80
2022-08-26T11:03:27.692Z,7.65
2022-08-26T11:06:37.015Z,7.95
2022-08-26T11:09:09.397Z,7.30
2022-08-26T11:11:46.826Z,7.20
2022-08-26T11:14:28.977Z,7.57
2022-08-26T11:16:59.049Z,7.70
2022-08-26T11:19:59.456Z,8.00
2022-08-26T11:22:37.287Z,7.65
2022-08-26T11:25:18.444Z,7.82
2022-08-26T11:27:49.565Z,7.80
2022-08-26T11:30:18.501Z,7.53
2022-08-26T11:32:58.016Z,7.95
2022-08-26T11:35:25.116Z,7.80
2022-08-26T11:38:21.640Z,7.25
2022-08-26T11:41:11.688Z,7.90
2022-08-26T11:43:40.975Z,7.78
2022-08-26T11:46:12.687Z,7.03
2022-08-26T11:48:44.595Z,7.80
2022-08-26T11:51:25.159Z,7.03
2022-08-26T11:54:08.065Z,7.45
2022-08-26T11:56:39.910Z,7.68
2022-08-26T11:59:22.914Z,7.35
2022-08-26T12:01:53.405Z,8.02
2022-08-26T12:04:34.596Z,7.60
2022-08-26T12:07:02.804Z,7.85
2022-08-26T12:09:34.974Z,7.32
2022-08-26T12:12:23.754Z,8.15
2022-08-26T12:15:14.309Z,7.78
2022-08-26T12:17:42.955Z,7.43
2022-08-26T12:20:46.075Z,7.05
2022-08-26T12:23:23.399Z,7.63
2022-08-26T12:26:02.115Z,7.80
2022-08-26T12:28:30.804Z,7.80
2022-08-26T12:31:06.644Z,7.63
2022-08-26T12:33:36.739Z,7.43
2022-08-26T12:36:06.094Z,7.47
2022-08-26T12:38:37.109Z,7.53
2022-08-26T12:41:04.684Z,7.50
2022-08-26T12:43:48.194Z,7.90
2022-08-26T12:46:27.415Z,7.43
2022-08-26T12:49:01.299Z,7.50
2022-08-26T12:51:31.405Z,7.40
2022-08-26T12:53:59.329Z,6.97
2022-08-26T12:56:36.536Z,7.63
2022-08-26T12:59:20.989Z,7.90
2022-08-26T13:01:51.257Z,7.10
2022-08-26T13:04:41.174Z,7.70
2022-08-26T13:07:24.526Z,7.88
2022-08-26T13:09:57.404Z,7.22
2022-08-26T13:12:32.244Z,7.47
2022-08-26T13:15:04.455Z,7.70
2022-08-26T13:17:31.900Z,7.60
2022-08-26T13:20:04.137Z,7.00
2022-08-26T13:22:33.788Z,7.25
2022-08-26T13:25:01.015Z,7.50
2022-08-26T13:27:28.269Z,6.88
2022-08-26T13:30:01.689Z,6.38
2022-08-26T13:32:29.381Z,7.00
2022-08-26T13:34:57.695Z,7.30
2022-08-26T13:37:34.270Z,7.07
2022-08-26T13:40:02.180Z,7.20
2022-08-26T13:42:29.935Z,7.30
2022-08-26T13:44:58.278Z,7.13
2022-08-26T13:47:27.565Z,6.82
2022-08-26T13:49:55.669Z,7.63
2022-08-26T13:52:31.013Z,7.65
2022-08-26T13:55:02.229Z,7.03
2022-08-26T13:57:30.558Z,7.15
2022-08-26T13:59:59.482Z,7.00
2022-08-26T14:02:28.017Z,7.40
2022-08-26T14:04:56.143Z,7.57
2022-08-26T14:07:23.654Z,7.25
2022-08-26T14:09:50.889Z,7.43
2022-08-26T14:12:21.351Z,7.85
2022-08-26T14:14:48.490Z,6.97
2022-08-26T14:17:22.305Z,6.80
2022-08-26T14:19:50.809Z,7.30
2022-08-26T14:22:19.874Z,7.25
2022-08-26T14:24:47.514Z,7.35
2022-08-26T14:27:15.130Z,7.70
2022-08-26T14:29:44.586Z,6.50
2022-08-26T14:32:21.416Z,7.43
2022-08-26T14:34:52.114Z,7.22
2022-08-26T14:37:19.897Z,7.07
2022-08-26T14:39:47.335Z,7.43
2022-08-26T14:42:17.110Z,7.18
2022-08-26T14:44:47.535Z,6.75
2022-08-26T14:47:14.685Z,7.10
2022-08-26T14:49:41.800Z,6.65
2022-08-26T14:52:10.075Z,7.45
2022-08-26T14:54:37.899Z,6.63
2022-08-26T14:57:09.315Z,7.60
2022-08-26T14:59:40.274Z,7.28
2022-08-26T15:02:11.483Z,6.53
2022-08-26T15:04:50.589Z,7.05
2022-08-26T15:07:18.319Z,6.70
2022-08-26T15:09:47.824Z,7.43
2022-08-26T15:12:14.975Z,7.13
2022-08-26T15:14:44.590Z,6.72
2022-08-26T15:17:11.741Z,6.38
2022-08-26T15:19:39.149Z,6.95
2022-08-26T15:22:06.319Z,7.00
2022-08-26T15:24:33.525Z,7.20
2022-08-26T15:27:07.390Z,7.03
2022-08-26T15:29:36.261Z,7.18
2022-08-26T15:32:07.077Z,7.18
2022-08-26T15:34:35.381Z,6.63
2022-08-26T15:37:02.865Z,7.28
2022-08-26T15:39:30.079Z,6.97
2022-08-26T15:41:57.521Z,7.07
2022-08-26T15:44:26.770Z,6.95
2022-08-26T15:46:58.396Z,7.10
2022-08-26T15:49:26.410Z,6.90
2022-08-26T15:51:55.885Z,7.20
2022-08-26T15:54:24.164Z,7.07
2022-08-26T15:56:52.598Z,7.00
2022-08-26T15:59:22.532Z,6.57
2022-08-26T16:01:51.076Z,7.25
2022-08-26T16:04:19.004Z,6.70
2022-08-26T16:06:50.447Z,7.05
2022-08-26T16:09:18.279Z,6.78
2022-08-26T16:11:45.350Z,7.07
2022-08-26T16:14:12.535Z,9.23
2022-08-26T16:16:41.444Z,8.85
2022-08-26T16:19:09.109Z,7.75
2022-08-26T16:21:36.318Z,8.60
2022-08-26T16:24:04.184Z,9.52
2022-08-26T16:26:34.435Z,9.60
2022-08-26T16:29:03.831Z,11.23
2022-08-26T16:31:31.090Z,7.63
2022-08-26T16:34:01.375Z,7.05
2022-08-26T16:36:28.614Z,7.90
2022-08-26T16:38:56.571Z,7.72
2022-08-26T16:41:29.352Z,7.55
2022-08-26T16:43:56.614Z,7.43
2022-08-26T16:46:26.793Z,6.75
2022-08-26T16:48:57.923Z,6.75
2022-08-26T16:51:27.798Z,7.18
2022-08-26T16:53:56.885Z,7.15
2022-08-26T16:56:33.829Z,7.30
2022-08-26T16:59:04.223Z,7.18
2022-08-26T17:01:31.611Z,7.10
2022-08-26T17:04:00.119Z,7.88
2022-08-26T17:06:27.480Z,6.82
2022-08-26T17:08:54.727Z,6.70
2022-08-26T17:11:21.978Z,6.65
2022-08-26T17:13:49.076Z,6.85
2022-08-26T17:16:17.748Z,6.40
2022-08-26T17:18:44.930Z,6.75
2022-08-26T17:21:13.910Z,6.88
2022-08-26T17:23:43.129Z,6.53
2022-08-26T17:26:12.489Z,6.93
2022-08-26T17:28:40.486Z,6.57
2022-08-26T17:31:13.648Z,7.57
2022-08-26T17:33:40.981Z,7.10
2022-08-26T17:36:09.699Z,7.00
2022-08-26T17:38:38.184Z,7.40
2022-08-26T17:41:10.287Z,7.80
2022-08-26T17:43:38.589Z,7.47
2022-08-26T17:46:08.106Z,7.53
2022-08-26T17:48:37.324Z,7.95
2022-08-26T17:51:16.646Z,7.28
2022-08-26T17:53:46.954Z,7.43
2022-08-26T17:56:18.640Z,7.35
2022-08-26T17:58:48.160Z,7.70
2022-08-26T18:01:20.664Z,7.25
2022-08-26T18:03:50.584Z,8.02
2022-08-26T18:06:17.979Z,7.25
2022-08-26T18:08:48.480Z,8.07
2022-08-26T18:11:18.735Z,7.85
2022-08-26T18:13:47.470Z,8.50
2022-08-26T18:16:17.468Z,7.45
2022-08-26T18:18:45.961Z,7.38
2022-08-26T18:21:19.400Z,7.10
2022-08-26T18:23:47.897Z,7.38
2022-08-26T18:26:35.825Z,7.60
2022-08-26T18:29:03.378Z,7.93
2022-08-26T18:31:31.556Z,7.70
2022-08-26T18:34:02.816Z,6.97
2022-08-26T18:36:36.120Z,7.35
2022-08-26T18:39:12.289Z,7.22
2022-08-26T18:41:45.610Z,7.50
2022-08-26T18:44:14.283Z,9.23
2022-08-26T18:46:41.730Z,7.05
2022-08-26T18:49:11.589Z,7.18
2022-08-26T18:51:39.090Z,7.40
2022-08-26T18:54:07.938Z,7.28
2022-08-26T18:56:37.149Z,7.38
2022-08-26T18:59:06.092Z,7.35
2022-08-26T19:01:34.475Z,7.13
2022-08-26T19:04:04.390Z,7.13
2022-08-26T19:06:36.235Z,7.13
2022-08-26T19:09:06.422Z,7.20
2022-08-26T19:11:37.593Z,7.13
2022-08-26T19:14:13.741Z,7.65
2022-08-26T19:16:43.616Z,7.65
2022-08-26T19:19:11.288Z,7.78
2022-08-26T19:21:39.368Z,7.50
2022-08-26T19:24:13.335Z,7.50
2022-08-26T19:26:40.525Z,8.23
2022-08-26T19:29:07.887Z,8.57
2022-08-26T19:31:35.296Z,7.75
2022-08-26T19:34:05.469Z,7.90
2022-08-26T19:36:32.974Z,8.27
2022-08-26T19:39:03.056Z,7.95
2022-08-26T19:41:36.557Z,7.03
2022-08-26T19:44:07.057Z,8.35
2022-08-26T19:46:34.407Z,7.10
2022-08-26T19:49:04.280Z,7.18
2022-08-26T19:51:35.200Z,7.40
2022-08-26T19:54:02.715Z,7.65
2022-08-26T19:56:29.986Z,7.28
2022-08-26T19:58:57.760Z,7.35
2022-08-26T20:01:25.578Z,8.95
2022-08-26T20:03:53.186Z,7.55
2022-08-26T20:06:20.778Z,8.00
2022-08-26T20:08:50.838Z,7.53
2022-08-26T20:11:21.085Z,7.78
2022-08-26T20:13:48.668Z,7.63
2022-08-26T20:16:17.414Z,8.73
2022-08-26T20:19:03.907Z,7.55
2022-08-26T20:21:35.710Z,7.70
2022-08-26T20:24:10.605Z,8.15
2022-08-26T20:26:40.365Z,7.65
2022-08-26T20:29:09.016Z,7.68
2022-08-26T20:31:36.534Z,7.45
2022-08-26T20:34:06.520Z,7.75
2022-08-26T20:36:34.107Z,8.02
2022-08-26T20:39:01.382Z,8.90
2022-08-26T20:41:28.736Z,8.07
2022-08-26T20:43:57.657Z,8.52
2022-08-26T20:46:25.545Z,7.78
2022-08-26T20:48:55.725Z,8.18
2022-08-26T20:51:26.046Z,7.63
2022-08-26T20:53:54.466Z,8.23
2022-08-26T20:56:26.029Z,7.65
2022-08-26T20:58:54.825Z,7.45
2022-08-26T21:01:25.435Z,7.63
2022-08-26T21:03:53.841Z,7.88
2022-08-26T21:06:23.883Z,7.53
2022-08-26T21:08:51.139Z,7.63
2022-08-26T21:11:19.074Z,6.85
2022-08-26T21:14:04.414Z,7.53
2022-08-26T21:16:36.794Z,7.35
2022-08-26T21:19:09.189Z,6.97
2022-08-26T21:21:38.860Z,6.95
2022-08-26T21:24:06.465Z,6.90
2022-08-26T21:26:33.835Z,7.03
2022-08-26T21:29:01.764Z,6.80
2022-08-26T21:31:29.859Z,6.43
2022-08-26T21:33:57.099Z,6.53
2022-08-26T21:36:24.839Z,6.43
2022-08-26T21:38:53.063Z,6.65
2022-08-26T21:41:22.285Z,6.32
2022-08-26T21:43:51.116Z,6.50
2022-08-26T21:46:22.247Z,6.65
2022-08-26T21:49:00.590Z,6.25
2022-08-26T21:51:32.932Z,6.40
2022-08-26T21:54:01.327Z,6.47
2022-08-26T21:56:30.149Z,6.40
2022-08-26T21:58:58.470Z,6.20
2022-08-26T22:01:29.589Z,6.60
2022-08-26T22:03:56.864Z,6.80
2022-08-26T22:06:27.380Z,6.60
2022-08-26T22:08:56.075Z,6.82
2022-08-26T22:11:23.864Z,6.32
2022-08-26T22:13:52.034Z,6.63
2022-08-26T22:16:21.518Z,6.82
2022-08-26T22:18:48.824Z,6.75
2022-08-26T22:21:19.245Z,6.72
2022-08-26T22:23:47.337Z,6.88
2022-08-26T22:26:25.457Z,6.72
2022-08-26T22:28:58.423Z,6.70
2022-08-26T22:31:37.542Z,6.28
2022-08-26T22:34:11.641Z,6.53
2022-08-26T22:36:43.140Z,6.85
2022-08-26T22:39:16.014Z,6.93
2022-08-26T22:41:45.289Z,6.95
2022-08-26T22:44:12.913Z,7.00
2022-08-26T22:46:41.109Z,7.00
2022-08-26T22:49:10.595Z,6.70
2022-08-26T22:51:37.941Z,7.00
2022-08-26T22:54:06.446Z,7.40
2022-08-26T22:56:37.150Z,6.93
2022-08-26T22:59:06.865Z,7.28
2022-08-26T23:01:39.809Z,7.63
2022-08-26T23:04:07.964Z,7.50
2022-08-26T23:06:39.174Z,7.70
2022-08-26T23:09:07.514Z,7.72
2022-08-26T23:11:35.476Z,7.75
2022-08-26T23:14:06.125Z,7.53
2022-08-26T23:16:44.275Z,7.72
2022-08-26T23:19:13.594Z,7.90
2022-08-26T23:21:40.974Z,8.13
2022-08-26T23:24:11.460Z,8.05
2022-08-26T23:26:40.179Z,8.13
2022-08-26T23:29:09.795Z,7.75
2022-08-26T23:31:40.357Z,7.07
2022-08-26T23:34:26.124Z,7.45
2022-08-26T23:36:57.125Z,7.35
2022-08-26T23:39:26.845Z,7.93
2022-08-26T23:41:57.564Z,7.88
2022-08-26T23:44:26.672Z,7.22
2022-08-26T23:46:54.109Z,7.65
2022-08-26T23:49:21.374Z,8.55
2022-08-26T23:52:08.356Z,8.02
2022-08-26T23:54:35.710Z,8.35
2022-08-26T23:57:04.169Z,9.07
2022-08-26T23:59:31.284Z,10.70
